Glen Flora, Wisconsin
Current Conditions -  °F | °C
As of 4:35 PM on Friday 28 Nov 2014 (Local Time) from KRCX Reporting Station
Overcast Overcast  
Wind Chill: 10°   Ceiling: 11000
Heat Index: 19°   Visibility: 10mi
Dew Point: 14°   Wind: 6mph
Humidity: 81%   Direction: 120°ESE
Pressure: 29.89"   Gusts: NA
Location:  45.5°N, 90.89°W
Report Text: KRCX 282235Z AUTO 12005KT 10SM SCT060 OVC110 M07/M10 A2989 RMK AO2 T10751102
Loading
Personal Weather Stations






























Interactive Weather Map New forecast layout! Learn more

10-Day Weather Forecast

Advertisements
Track Severe Weather on mobile